sensor_id;sensor_type;location;lat;lon;timestamp;P1;durP1;ratioP1;P2;durP2;ratioP2
28960;SDS011;16068;42.896;20.868;2022-10-16T00:01:18;0.20;;;0.20;;
28960;SDS011;16068;42.896;20.868;2022-10-16T00:04:06;0.20;;;0.20;;
28960;SDS011;16068;42.896;20.868;2022-10-16T00:06:52;0.20;;;0.20;;
28960;SDS011;16068;42.896;20.868;2022-10-16T00:09:37;0.15;;;0.15;;
28960;SDS011;16068;42.896;20.868;2022-10-16T00:12:23;0.10;;;0.10;;
28960;SDS011;16068;42.896;20.868;2022-10-16T00:15:09;0.10;;;0.10;;
28960;SDS011;16068;42.896;20.868;2022-10-16T00:17:55;0.20;;;0.20;;
28960;SDS011;16068;42.896;20.868;2022-10-16T00:20:41;0.20;;;0.20;;
28960;SDS011;16068;42.896;20.868;2022-10-16T00:23:27;0.10;;;0.10;;
28960;SDS011;16068;42.896;20.868;2022-10-16T00:26:13;0.10;;;0.10;;
28960;SDS011;16068;42.896;20.868;2022-10-16T00:29:00;0.20;;;0.20;;
28960;SDS011;16068;42.896;20.868;2022-10-16T00:31:47;0.20;;;0.20;;
28960;SDS011;16068;42.896;20.868;2022-10-16T00:34:32;0.20;;;0.20;;
28960;SDS011;16068;42.896;20.868;2022-10-16T00:37:18;0.20;;;0.20;;
28960;SDS011;16068;42.896;20.868;2022-10-16T00:40:04;0.10;;;0.10;;
28960;SDS011;16068;42.896;20.868;2022-10-16T00:42:50;0.10;;;0.10;;
28960;SDS011;16068;42.896;20.868;2022-10-16T00:45:36;0.10;;;0.10;;
28960;SDS011;16068;42.896;20.868;2022-10-16T00:48:22;0.10;;;0.10;;
28960;SDS011;16068;42.896;20.868;2022-10-16T00:51:07;0.10;;;0.10;;
28960;SDS011;16068;42.896;20.868;2022-10-16T00:53:54;0.20;;;0.20;;
28960;SDS011;16068;42.896;20.868;2022-10-16T00:56:41;0.25;;;0.25;;
28960;SDS011;16068;42.896;20.868;2022-10-16T00:59:35;0.10;;;0.10;;
28960;SDS011;16068;42.896;20.868;2022-10-16T01:02:22;0.10;;;0.10;;
28960;SDS011;16068;42.896;20.868;2022-10-16T01:05:09;0.20;;;0.20;;
28960;SDS011;16068;42.896;20.868;2022-10-16T01:10:44;0.15;;;0.15;;
28960;SDS011;16068;42.896;20.868;2022-10-16T01:13:38;0.15;;;0.15;;
28960;SDS011;16068;42.896;20.868;2022-10-16T01:19:50;0.15;;;0.15;;
28960;SDS011;16068;42.896;20.868;2022-10-16T01:26:13;0.10;;;0.10;;
28960;SDS011;16068;42.896;20.868;2022-10-16T01:29:09;0.10;;;0.10;;
28960;SDS011;16068;42.896;20.868;2022-10-16T01:32:01;0.10;;;0.10;;
28960;SDS011;16068;42.896;20.868;2022-10-16T01:34:55;4.53;;;0.20;;
28960;SDS011;16068;42.896;20.868;2022-10-16T01:40:46;0.10;;;0.10;;
28960;SDS011;16068;42.896;20.868;2022-10-16T01:43:40;0.10;;;0.10;;
28960;SDS011;16068;42.896;20.868;2022-10-16T01:46:32;0.10;;;0.10;;
28960;SDS011;16068;42.896;20.868;2022-10-16T01:49:23;0.20;;;0.20;;
28960;SDS011;16068;42.896;20.868;2022-10-16T01:52:17;0.10;;;0.10;;
28960;SDS011;16068;42.896;20.868;2022-10-16T01:55:06;0.10;;;0.10;;
28960;SDS011;16068;42.896;20.868;2022-10-16T01:57:54;0.20;;;0.20;;
28960;SDS011;16068;42.896;20.868;2022-10-16T02:00:42;0.17;;;0.17;;
28960;SDS011;16068;42.896;20.868;2022-10-16T02:03:30;0.10;;;0.10;;
28960;SDS011;16068;42.896;20.868;2022-10-16T02:06:17;0.20;;;0.20;;
28960;SDS011;16068;42.896;20.868;2022-10-16T02:09:03;0.10;;;0.10;;
28960;SDS011;16068;42.896;20.868;2022-10-16T02:11:48;0.20;;;0.20;;
28960;SDS011;16068;42.896;20.868;2022-10-16T02:14:38;0.10;;;0.10;;
28960;SDS011;16068;42.896;20.868;2022-10-16T02:17:25;0.20;;;0.20;;
28960;SDS011;16068;42.896;20.868;2022-10-16T02:20:11;0.17;;;0.17;;
28960;SDS011;16068;42.896;20.868;2022-10-16T02:22:57;0.10;;;0.10;;
28960;SDS011;16068;42.896;20.868;2022-10-16T02:25:44;0.10;;;0.10;;
28960;SDS011;16068;42.896;20.868;2022-10-16T02:28:54;0.10;;;0.10;;
28960;SDS011;16068;42.896;20.868;2022-10-16T02:31:41;0.10;;;0.10;;
28960;SDS011;16068;42.896;20.868;2022-10-16T02:34:28;0.10;;;0.10;;
28960;SDS011;16068;42.896;20.868;2022-10-16T02:37:16;0.10;;;0.10;;
28960;SDS011;16068;42.896;20.868;2022-10-16T02:40:03;0.10;;;0.10;;
28960;SDS011;16068;42.896;20.868;2022-10-16T02:42:51;0.20;;;0.20;;
28960;SDS011;16068;42.896;20.868;2022-10-16T02:45:38;0.10;;;0.10;;
28960;SDS011;16068;42.896;20.868;2022-10-16T02:48:24;0.10;;;0.10;;
28960;SDS011;16068;42.896;20.868;2022-10-16T02:51:10;0.20;;;0.20;;
28960;SDS011;16068;42.896;20.868;2022-10-16T02:53:55;0.20;;;0.20;;
28960;SDS011;16068;42.896;20.868;2022-10-16T02:56:41;0.10;;;0.10;;
28960;SDS011;16068;42.896;20.868;2022-10-16T02:59:27;0.13;;;0.13;;
28960;SDS011;16068;42.896;20.868;2022-10-16T03:02:13;0.20;;;0.20;;
28960;SDS011;16068;42.896;20.868;2022-10-16T03:04:59;0.10;;;0.10;;
28960;SDS011;16068;42.896;20.868;2022-10-16T03:07:44;0.10;;;0.10;;
28960;SDS011;16068;42.896;20.868;2022-10-16T03:10:31;0.10;;;0.10;;
28960;SDS011;16068;42.896;20.868;2022-10-16T03:13:17;0.10;;;0.10;;
28960;SDS011;16068;42.896;20.868;2022-10-16T03:16:05;0.10;;;0.10;;
28960;SDS011;16068;42.896;20.868;2022-10-16T03:18:51;0.10;;;0.10;;
28960;SDS011;16068;42.896;20.868;2022-10-16T03:21:39;0.10;;;0.10;;
28960;SDS011;16068;42.896;20.868;2022-10-16T03:24:25;0.10;;;0.10;;
28960;SDS011;16068;42.896;20.868;2022-10-16T03:27:13;0.10;;;0.10;;
28960;SDS011;16068;42.896;20.868;2022-10-16T03:30:07;0.10;;;0.10;;
28960;SDS011;16068;42.896;20.868;2022-10-16T03:32:53;0.10;;;0.10;;
28960;SDS011;16068;42.896;20.868;2022-10-16T03:35:39;0.10;;;0.10;;
28960;SDS011;16068;42.896;20.868;2022-10-16T03:38:25;0.10;;;0.10;;
28960;SDS011;16068;42.896;20.868;2022-10-16T03:41:11;0.10;;;0.10;;
28960;SDS011;16068;42.896;20.868;2022-10-16T03:43:57;0.20;;;0.20;;
28960;SDS011;16068;42.896;20.868;2022-10-16T03:46:42;0.10;;;0.10;;
28960;SDS011;16068;42.896;20.868;2022-10-16T03:49:28;0.20;;;0.20;;
28960;SDS011;16068;42.896;20.868;2022-10-16T03:52:14;0.10;;;0.10;;
28960;SDS011;16068;42.896;20.868;2022-10-16T03:55:08;0.10;;;0.10;;
28960;SDS011;16068;42.896;20.868;2022-10-16T03:57:54;0.10;;;0.10;;
28960;SDS011;16068;42.896;20.868;2022-10-16T04:00:41;0.10;;;0.10;;
28960;SDS011;16068;42.896;20.868;2022-10-16T04:03:28;0.10;;;0.10;;
28960;SDS011;16068;42.896;20.868;2022-10-16T04:06:14;0.10;;;0.10;;
28960;SDS011;16068;42.896;20.868;2022-10-16T04:08:59;0.10;;;0.10;;
28960;SDS011;16068;42.896;20.868;2022-10-16T04:11:45;0.10;;;0.10;;
28960;SDS011;16068;42.896;20.868;2022-10-16T04:14:31;0.20;;;0.20;;
28960;SDS011;16068;42.896;20.868;2022-10-16T04:17:17;0.10;;;0.10;;
28960;SDS011;16068;42.896;20.868;2022-10-16T04:20:03;0.10;;;0.10;;
28960;SDS011;16068;42.896;20.868;2022-10-16T04:22:49;0.20;;;0.20;;
28960;SDS011;16068;42.896;20.868;2022-10-16T04:25:35;0.20;;;0.20;;
28960;SDS011;16068;42.896;20.868;2022-10-16T04:28:21;0.10;;;0.10;;
28960;SDS011;16068;42.896;20.868;2022-10-16T04:31:07;0.10;;;0.10;;
28960;SDS011;16068;42.896;20.868;2022-10-16T04:33:53;0.17;;;0.17;;
28960;SDS011;16068;42.896;20.868;2022-10-16T04:36:38;0.10;;;0.10;;
28960;SDS011;16068;42.896;20.868;2022-10-16T04:39:24;0.10;;;0.10;;
28960;SDS011;16068;42.896;20.868;2022-10-16T04:42:10;0.17;;;0.17;;
28960;SDS011;16068;42.896;20.868;2022-10-16T04:44:56;0.20;;;0.20;;
28960;SDS011;16068;42.896;20.868;2022-10-16T04:47:42;0.20;;;0.20;;
28960;SDS011;16068;42.896;20.868;2022-10-16T04:50:27;0.10;;;0.10;;
28960;SDS011;16068;42.896;20.868;2022-10-16T04:53:23;0.15;;;0.15;;
28960;SDS011;16068;42.896;20.868;2022-10-16T04:56:09;0.20;;;0.20;;
28960;SDS011;16068;42.896;20.868;2022-10-16T04:58:55;0.20;;;0.20;;
28960;SDS011;16068;42.896;20.868;2022-10-16T05:01:40;0.20;;;0.20;;
28960;SDS011;16068;42.896;20.868;2022-10-16T05:04:26;0.10;;;0.10;;
28960;SDS011;16068;42.896;20.868;2022-10-16T05:07:12;0.20;;;0.20;;
28960;SDS011;16068;42.896;20.868;2022-10-16T05:09:58;0.20;;;0.20;;
28960;SDS011;16068;42.896;20.868;2022-10-16T05:12:44;0.20;;;0.20;;
28960;SDS011;16068;42.896;20.868;2022-10-16T05:15:30;0.20;;;0.20;;
28960;SDS011;16068;42.896;20.868;2022-10-16T05:18:16;0.20;;;0.20;;
28960;SDS011;16068;42.896;20.868;2022-10-16T05:21:02;0.17;;;0.17;;
28960;SDS011;16068;42.896;20.868;2022-10-16T05:23:48;0.10;;;0.10;;
28960;SDS011;16068;42.896;20.868;2022-10-16T05:26:34;0.20;;;0.20;;
28960;SDS011;16068;42.896;20.868;2022-10-16T05:29:20;0.20;;;0.20;;
28960;SDS011;16068;42.896;20.868;2022-10-16T05:32:06;0.10;;;0.10;;
28960;SDS011;16068;42.896;20.868;2022-10-16T05:34:52;0.10;;;0.10;;
28960;SDS011;16068;42.896;20.868;2022-10-16T05:37:37;0.10;;;0.10;;
28960;SDS011;16068;42.896;20.868;2022-10-16T05:40:23;0.20;;;0.20;;
28960;SDS011;16068;42.896;20.868;2022-10-16T05:43:09;0.20;;;0.20;;
28960;SDS011;16068;42.896;20.868;2022-10-16T05:45:56;0.10;;;0.10;;
28960;SDS011;16068;42.896;20.868;2022-10-16T05:51:40;0.10;;;0.10;;
28960;SDS011;16068;42.896;20.868;2022-10-16T05:54:26;0.13;;;0.13;;
28960;SDS011;16068;42.896;20.868;2022-10-16T05:57:13;0.20;;;0.20;;
28960;SDS011;16068;42.896;20.868;2022-10-16T06:00:07;0.20;;;0.20;;
28960;SDS011;16068;42.896;20.868;2022-10-16T06:02:57;0.20;;;0.20;;
28960;SDS011;16068;42.896;20.868;2022-10-16T06:05:47;0.22;;;0.22;;
28960;SDS011;16068;42.896;20.868;2022-10-16T06:08:34;0.20;;;0.20;;
28960;SDS011;16068;42.896;20.868;2022-10-16T06:11:21;0.20;;;0.20;;
28960;SDS011;16068;42.896;20.868;2022-10-16T06:14:08;0.10;;;0.10;;
28960;SDS011;16068;42.896;20.868;2022-10-16T06:16:54;0.20;;;0.20;;
28960;SDS011;16068;42.896;20.868;2022-10-16T06:19:41;0.20;;;0.20;;
28960;SDS011;16068;42.896;20.868;2022-10-16T06:22:28;0.20;;;0.20;;
28960;SDS011;16068;42.896;20.868;2022-10-16T06:25:15;0.20;;;0.20;;
28960;SDS011;16068;42.896;20.868;2022-10-16T06:28:02;0.10;;;0.10;;
28960;SDS011;16068;42.896;20.868;2022-10-16T06:30:49;0.20;;;0.20;;
28960;SDS011;16068;42.896;20.868;2022-10-16T06:33:51;0.20;;;0.20;;
28960;SDS011;16068;42.896;20.868;2022-10-16T06:36:37;0.10;;;0.10;;
28960;SDS011;16068;42.896;20.868;2022-10-16T06:39:24;0.10;;;0.10;;
28960;SDS011;16068;42.896;20.868;2022-10-16T06:42:10;0.20;;;0.20;;
28960;SDS011;16068;42.896;20.868;2022-10-16T06:44:55;0.10;;;0.10;;
28960;SDS011;16068;42.896;20.868;2022-10-16T06:47:41;0.15;;;0.15;;
28960;SDS011;16068;42.896;20.868;2022-10-16T06:50:27;0.10;;;0.10;;
28960;SDS011;16068;42.896;20.868;2022-10-16T06:53:14;0.15;;;0.15;;
28960;SDS011;16068;42.896;20.868;2022-10-16T06:56:09;0.10;;;0.10;;
28960;SDS011;16068;42.896;20.868;2022-10-16T06:58:57;0.20;;;0.20;;
28960;SDS011;16068;42.896;20.868;2022-10-16T07:01:44;0.10;;;0.10;;
28960;SDS011;16068;42.896;20.868;2022-10-16T07:04:30;0.20;;;0.20;;
28960;SDS011;16068;42.896;20.868;2022-10-16T07:07:16;0.15;;;0.15;;
28960;SDS011;16068;42.896;20.868;2022-10-16T07:10:02;0.20;;;0.20;;
28960;SDS011;16068;42.896;20.868;2022-10-16T07:12:48;0.20;;;0.20;;
28960;SDS011;16068;42.896;20.868;2022-10-16T07:15:34;0.13;;;0.13;;
28960;SDS011;16068;42.896;20.868;2022-10-16T07:18:20;0.20;;;0.20;;
28960;SDS011;16068;42.896;20.868;2022-10-16T07:21:06;0.20;;;0.20;;
28960;SDS011;16068;42.896;20.868;2022-10-16T07:23:54;0.20;;;0.20;;
28960;SDS011;16068;42.896;20.868;2022-10-16T07:26:45;0.20;;;0.20;;
28960;SDS011;16068;42.896;20.868;2022-10-16T07:29:31;0.15;;;0.15;;
28960;SDS011;16068;42.896;20.868;2022-10-16T07:32:17;0.20;;;0.20;;
28960;SDS011;16068;42.896;20.868;2022-10-16T07:35:03;0.20;;;0.20;;
28960;SDS011;16068;42.896;20.868;2022-10-16T07:37:50;0.20;;;0.20;;
28960;SDS011;16068;42.896;20.868;2022-10-16T07:40:35;0.38;;;0.25;;
28960;SDS011;16068;42.896;20.868;2022-10-16T07:43:22;0.20;;;0.20;;
28960;SDS011;16068;42.896;20.868;2022-10-16T07:46:09;0.10;;;0.10;;
28960;SDS011;16068;42.896;20.868;2022-10-16T07:48:55;0.20;;;0.20;;
28960;SDS011;16068;42.896;20.868;2022-10-16T07:51:41;0.20;;;0.20;;
28960;SDS011;16068;42.896;20.868;2022-10-16T07:54:26;0.20;;;0.20;;
28960;SDS011;16068;42.896;20.868;2022-10-16T07:57:12;0.20;;;0.20;;
28960;SDS011;16068;42.896;20.868;2022-10-16T08:00:04;0.20;;;0.20;;
28960;SDS011;16068;42.896;20.868;2022-10-16T08:02:59;0.20;;;0.20;;
28960;SDS011;16068;42.896;20.868;2022-10-16T08:05:45;0.15;;;0.15;;
28960;SDS011;16068;42.896;20.868;2022-10-16T08:08:31;0.20;;;0.20;;
28960;SDS011;16068;42.896;20.868;2022-10-16T08:11:17;0.10;;;0.10;;
28960;SDS011;16068;42.896;20.868;2022-10-16T08:14:03;0.20;;;0.20;;
28960;SDS011;16068;42.896;20.868;2022-10-16T08:16:49;0.20;;;0.20;;
28960;SDS011;16068;42.896;20.868;2022-10-16T08:19:34;0.17;;;0.17;;
28960;SDS011;16068;42.896;20.868;2022-10-16T08:22:21;0.20;;;0.20;;
28960;SDS011;16068;42.896;20.868;2022-10-16T08:25:07;0.20;;;0.20;;
28960;SDS011;16068;42.896;20.868;2022-10-16T08:27:53;0.20;;;0.20;;
28960;SDS011;16068;42.896;20.868;2022-10-16T08:30:39;0.30;;;0.30;;
28960;SDS011;16068;42.896;20.868;2022-10-16T08:33:25;0.20;;;0.20;;
28960;SDS011;16068;42.896;20.868;2022-10-16T08:36:11;0.38;;;0.35;;
28960;SDS011;16068;42.896;20.868;2022-10-16T08:38:57;0.20;;;0.20;;
28960;SDS011;16068;42.896;20.868;2022-10-16T08:51:04;0.40;;;0.38;;
28960;SDS011;16068;42.896;20.868;2022-10-16T08:54:03;0.80;;;0.30;;
28960;SDS011;16068;42.896;20.868;2022-10-16T08:56:50;0.40;;;0.40;;
28960;SDS011;16068;42.896;20.868;2022-10-16T08:59:36;0.65;;;0.50;;
28960;SDS011;16068;42.896;20.868;2022-10-16T09:02:35;0.40;;;0.40;;
28960;SDS011;16068;42.896;20.868;2022-10-16T09:08:38;0.50;;;0.45;;
28960;SDS011;16068;42.896;20.868;2022-10-16T09:21:13;0.63;;;0.60;;
28960;SDS011;16068;42.896;20.868;2022-10-16T09:24:09;0.50;;;0.50;;
28960;SDS011;16068;42.896;20.868;2022-10-16T09:26:57;1.33;;;0.52;;
28960;SDS011;16068;42.896;20.868;2022-10-16T09:29:43;0.40;;;0.40;;
28960;SDS011;16068;42.896;20.868;2022-10-16T09:32:29;0.55;;;0.50;;
28960;SDS011;16068;42.896;20.868;2022-10-16T09:35:16;0.63;;;0.55;;
28960;SDS011;16068;42.896;20.868;2022-10-16T09:38:05;0.73;;;0.57;;
28960;SDS011;16068;42.896;20.868;2022-10-16T09:40:52;1.02;;;0.50;;
28960;SDS011;16068;42.896;20.868;2022-10-16T09:44:00;1.15;;;0.75;;
28960;SDS011;16068;42.896;20.868;2022-10-16T09:46:47;0.70;;;0.70;;
28960;SDS011;16068;42.896;20.868;2022-10-16T09:49:33;1.20;;;0.80;;
28960;SDS011;16068;42.896;20.868;2022-10-16T09:52:19;0.50;;;0.40;;
28960;SDS011;16068;42.896;20.868;2022-10-16T09:55:23;0.50;;;0.50;;
28960;SDS011;16068;42.896;20.868;2022-10-16T09:58:13;0.40;;;0.40;;
28960;SDS011;16068;42.896;20.868;2022-10-16T10:00:59;0.50;;;0.50;;
28960;SDS011;16068;42.896;20.868;2022-10-16T10:03:45;0.40;;;0.40;;
28960;SDS011;16068;42.896;20.868;2022-10-16T10:06:34;0.55;;;0.55;;
28960;SDS011;16068;42.896;20.868;2022-10-16T10:09:25;0.63;;;0.52;;
28960;SDS011;16068;42.896;20.868;2022-10-16T10:15:13;0.82;;;0.50;;
28960;SDS011;16068;42.896;20.868;2022-10-16T10:18:21;0.30;;;0.30;;
28960;SDS011;16068;42.896;20.868;2022-10-16T10:21:12;0.30;;;0.30;;
28960;SDS011;16068;42.896;20.868;2022-10-16T10:23:59;0.20;;;0.20;;
28960;SDS011;16068;42.896;20.868;2022-10-16T10:26:51;0.20;;;0.20;;
28960;SDS011;16068;42.896;20.868;2022-10-16T10:33:09;0.30;;;0.30;;
28960;SDS011;16068;42.896;20.868;2022-10-16T10:36:14;0.30;;;0.30;;
28960;SDS011;16068;42.896;20.868;2022-10-16T10:45:24;0.40;;;0.40;;
28960;SDS011;16068;42.896;20.868;2022-10-16T10:51:21;0.30;;;0.30;;
28960;SDS011;16068;42.896;20.868;2022-10-16T10:54:45;0.30;;;0.30;;
28960;SDS011;16068;42.896;20.868;2022-10-16T11:01:26;0.40;;;0.30;;
28960;SDS011;16068;42.896;20.868;2022-10-16T11:07:32;0.30;;;0.30;;
28960;SDS011;16068;42.896;20.868;2022-10-16T11:10:21;0.50;;;0.40;;
28960;SDS011;16068;42.896;20.868;2022-10-16T11:13:27;0.45;;;0.40;;
28960;SDS011;16068;42.896;20.868;2022-10-16T11:25:22;0.93;;;0.50;;
28960;SDS011;16068;42.896;20.868;2022-10-16T11:28:18;0.35;;;0.35;;
28960;SDS011;16068;42.896;20.868;2022-10-16T11:31:24;0.67;;;0.53;;
28960;SDS011;16068;42.896;20.868;2022-10-16T11:37:14;1.05;;;0.50;;
28960;SDS011;16068;42.896;20.868;2022-10-16T11:40:14;0.40;;;0.40;;
28960;SDS011;16068;42.896;20.868;2022-10-16T11:43:11;0.50;;;0.50;;
28960;SDS011;16068;42.896;20.868;2022-10-16T11:46:05;0.68;;;0.40;;
28960;SDS011;16068;42.896;20.868;2022-10-16T11:55:01;2.05;;;0.60;;
28960;SDS011;16068;42.896;20.868;2022-10-16T12:01:19;1.33;;;0.50;;
28960;SDS011;16068;42.896;20.868;2022-10-16T12:07:46;2.03;;;0.70;;
28960;SDS011;16068;42.896;20.868;2022-10-16T12:11:05;1.42;;;0.50;;
28960;SDS011;16068;42.896;20.868;2022-10-16T12:16:58;1.10;;;0.52;;
28960;SDS011;16068;42.896;20.868;2022-10-16T12:19:45;0.43;;;0.43;;
28960;SDS011;16068;42.896;20.868;2022-10-16T12:25:40;1.08;;;0.60;;
28960;SDS011;16068;42.896;20.868;2022-10-16T12:28:32;1.02;;;0.70;;
28960;SDS011;16068;42.896;20.868;2022-10-16T12:31:18;0.70;;;0.70;;
28960;SDS011;16068;42.896;20.868;2022-10-16T12:34:05;1.42;;;1.00;;
28960;SDS011;16068;42.896;20.868;2022-10-16T12:36:51;0.57;;;0.50;;
28960;SDS011;16068;42.896;20.868;2022-10-16T12:39:37;0.50;;;0.50;;
28960;SDS011;16068;42.896;20.868;2022-10-16T12:42:33;1.52;;;0.68;;
28960;SDS011;16068;42.896;20.868;2022-10-16T12:45:24;0.50;;;0.50;;
28960;SDS011;16068;42.896;20.868;2022-10-16T12:48:19;0.68;;;0.60;;
28960;SDS011;16068;42.896;20.868;2022-10-16T13:00:24;0.70;;;0.50;;
28960;SDS011;16068;42.896;20.868;2022-10-16T13:06:33;0.85;;;0.60;;
28960;SDS011;16068;42.896;20.868;2022-10-16T13:09:49;0.55;;;0.47;;
28960;SDS011;16068;42.896;20.868;2022-10-16T13:19:18;0.30;;;0.30;;
28960;SDS011;16068;42.896;20.868;2022-10-16T13:25:31;0.35;;;0.30;;
28960;SDS011;16068;42.896;20.868;2022-10-16T13:28:36;0.50;;;0.40;;
28960;SDS011;16068;42.896;20.868;2022-10-16T13:31:23;0.70;;;0.40;;
28960;SDS011;16068;42.896;20.868;2022-10-16T13:34:12;0.30;;;0.30;;
28960;SDS011;16068;42.896;20.868;2022-10-16T13:37:15;0.30;;;0.30;;
28960;SDS011;16068;42.896;20.868;2022-10-16T13:40:12;0.50;;;0.40;;
28960;SDS011;16068;42.896;20.868;2022-10-16T13:43:05;0.40;;;0.40;;
28960;SDS011;16068;42.896;20.868;2022-10-16T13:45:54;0.30;;;0.30;;
28960;SDS011;16068;42.896;20.868;2022-10-16T13:48:41;0.20;;;0.20;;
28960;SDS011;16068;42.896;20.868;2022-10-16T13:51:28;0.20;;;0.20;;
28960;SDS011;16068;42.896;20.868;2022-10-16T13:54:14;0.60;;;0.30;;
28960;SDS011;16068;42.896;20.868;2022-10-16T13:57:06;0.35;;;0.20;;
28960;SDS011;16068;42.896;20.868;2022-10-16T14:00:24;0.20;;;0.20;;
28960;SDS011;16068;42.896;20.868;2022-10-16T14:03:15;0.20;;;0.20;;
28960;SDS011;16068;42.896;20.868;2022-10-16T14:06:02;0.30;;;0.30;;
28960;SDS011;16068;42.896;20.868;2022-10-16T14:08:57;0.45;;;0.30;;
28960;SDS011;16068;42.896;20.868;2022-10-16T14:12:00;0.43;;;0.40;;
28960;SDS011;16068;42.896;20.868;2022-10-16T14:14:49;0.28;;;0.28;;
28960;SDS011;16068;42.896;20.868;2022-10-16T14:17:36;0.20;;;0.20;;
28960;SDS011;16068;42.896;20.868;2022-10-16T14:20:30;0.30;;;0.30;;
28960;SDS011;16068;42.896;20.868;2022-10-16T14:26:17;0.20;;;0.20;;
28960;SDS011;16068;42.896;20.868;2022-10-16T14:29:12;0.22;;;0.20;;
28960;SDS011;16068;42.896;20.868;2022-10-16T14:32:04;0.20;;;0.20;;
28960;SDS011;16068;42.896;20.868;2022-10-16T14:34:54;0.30;;;0.30;;
28960;SDS011;16068;42.896;20.868;2022-10-16T14:37:39;0.22;;;0.22;;
28960;SDS011;16068;42.896;20.868;2022-10-16T14:40:27;0.22;;;0.20;;
28960;SDS011;16068;42.896;20.868;2022-10-16T14:43:24;0.28;;;0.20;;
28960;SDS011;16068;42.896;20.868;2022-10-16T14:46:16;0.20;;;0.20;;
28960;SDS011;16068;42.896;20.868;2022-10-16T14:51:55;0.10;;;0.10;;
28960;SDS011;16068;42.896;20.868;2022-10-16T14:54:41;0.20;;;0.20;;
28960;SDS011;16068;42.896;20.868;2022-10-16T14:57:27;0.13;;;0.13;;
28960;SDS011;16068;42.896;20.868;2022-10-16T15:00:21;0.10;;;0.10;;
28960;SDS011;16068;42.896;20.868;2022-10-16T15:03:09;0.20;;;0.20;;
28960;SDS011;16068;42.896;20.868;2022-10-16T15:05:55;0.20;;;0.20;;
28960;SDS011;16068;42.896;20.868;2022-10-16T15:08:41;0.10;;;0.10;;
28960;SDS011;16068;42.896;20.868;2022-10-16T15:11:27;0.20;;;0.20;;
28960;SDS011;16068;42.896;20.868;2022-10-16T15:14:13;0.10;;;0.10;;
28960;SDS011;16068;42.896;20.868;2022-10-16T15:17:04;0.20;;;0.20;;
28960;SDS011;16068;42.896;20.868;2022-10-16T15:19:50;0.10;;;0.10;;
28960;SDS011;16068;42.896;20.868;2022-10-16T15:22:36;0.15;;;0.15;;
28960;SDS011;16068;42.896;20.868;2022-10-16T15:25:27;0.10;;;0.10;;
28960;SDS011;16068;42.896;20.868;2022-10-16T15:28:17;0.10;;;0.10;;
28960;SDS011;16068;42.896;20.868;2022-10-16T15:31:04;0.10;;;0.10;;
28960;SDS011;16068;42.896;20.868;2022-10-16T15:33:51;0.10;;;0.10;;
28960;SDS011;16068;42.896;20.868;2022-10-16T15:36:41;0.10;;;0.10;;
28960;SDS011;16068;42.896;20.868;2022-10-16T15:39:27;0.13;;;0.13;;
28960;SDS011;16068;42.896;20.868;2022-10-16T15:42:13;0.10;;;0.10;;
28960;SDS011;16068;42.896;20.868;2022-10-16T15:44:59;0.15;;;0.15;;
28960;SDS011;16068;42.896;20.868;2022-10-16T15:47:44;0.20;;;0.20;;
28960;SDS011;16068;42.896;20.868;2022-10-16T15:50:30;0.20;;;0.20;;
28960;SDS011;16068;42.896;20.868;2022-10-16T15:53:17;0.10;;;0.10;;
28960;SDS011;16068;42.896;20.868;2022-10-16T15:56:03;0.20;;;0.20;;
28960;SDS011;16068;42.896;20.868;2022-10-16T15:58:54;0.10;;;0.10;;
28960;SDS011;16068;42.896;20.868;2022-10-16T16:01:40;0.10;;;0.10;;
28960;SDS011;16068;42.896;20.868;2022-10-16T16:04:29;0.15;;;0.15;;
28960;SDS011;16068;42.896;20.868;2022-10-16T16:07:32;0.17;;;0.17;;
28960;SDS011;16068;42.896;20.868;2022-10-16T16:10:19;0.20;;;0.20;;
28960;SDS011;16068;42.896;20.868;2022-10-16T16:13:06;0.10;;;0.10;;
28960;SDS011;16068;42.896;20.868;2022-10-16T16:15:52;0.10;;;0.10;;
28960;SDS011;16068;42.896;20.868;2022-10-16T16:18:38;0.17;;;0.17;;
28960;SDS011;16068;42.896;20.868;2022-10-16T16:21:25;0.15;;;0.13;;
28960;SDS011;16068;42.896;20.868;2022-10-16T16:24:11;0.10;;;0.10;;
28960;SDS011;16068;42.896;20.868;2022-10-16T16:26:57;0.10;;;0.10;;
28960;SDS011;16068;42.896;20.868;2022-10-16T16:29:43;0.20;;;0.20;;
28960;SDS011;16068;42.896;20.868;2022-10-16T16:32:29;0.25;;;0.20;;
28960;SDS011;16068;42.896;20.868;2022-10-16T16:35:15;0.10;;;0.10;;
28960;SDS011;16068;42.896;20.868;2022-10-16T16:38:01;0.10;;;0.10;;
28960;SDS011;16068;42.896;20.868;2022-10-16T16:40:47;0.10;;;0.10;;
28960;SDS011;16068;42.896;20.868;2022-10-16T16:43:40;0.10;;;0.10;;
28960;SDS011;16068;42.896;20.868;2022-10-16T16:46:26;0.10;;;0.10;;
28960;SDS011;16068;42.896;20.868;2022-10-16T16:49:12;0.10;;;0.10;;
28960;SDS011;16068;42.896;20.868;2022-10-16T16:52:00;0.10;;;0.10;;
28960;SDS011;16068;42.896;20.868;2022-10-16T16:54:47;0.10;;;0.10;;
28960;SDS011;16068;42.896;20.868;2022-10-16T16:57:37;0.10;;;0.10;;
28960;SDS011;16068;42.896;20.868;2022-10-16T17:00:23;0.17;;;0.15;;
28960;SDS011;16068;42.896;20.868;2022-10-16T17:03:09;0.55;;;0.17;;
28960;SDS011;16068;42.896;20.868;2022-10-16T17:05:59;0.10;;;0.10;;
28960;SDS011;16068;42.896;20.868;2022-10-16T17:08:50;0.10;;;0.10;;
28960;SDS011;16068;42.896;20.868;2022-10-16T17:11:35;0.10;;;0.10;;
28960;SDS011;16068;42.896;20.868;2022-10-16T17:14:21;0.10;;;0.10;;
28960;SDS011;16068;42.896;20.868;2022-10-16T17:17:07;0.10;;;0.10;;
28960;SDS011;16068;42.896;20.868;2022-10-16T17:19:53;0.10;;;0.10;;
28960;SDS011;16068;42.896;20.868;2022-10-16T17:22:39;0.10;;;0.10;;
28960;SDS011;16068;42.896;20.868;2022-10-16T17:25:25;0.10;;;0.10;;
28960;SDS011;16068;42.896;20.868;2022-10-16T17:28:13;0.10;;;0.10;;
28960;SDS011;16068;42.896;20.868;2022-10-16T17:31:07;0.22;;;0.20;;
28960;SDS011;16068;42.896;20.868;2022-10-16T17:34:00;0.10;;;0.10;;
28960;SDS011;16068;42.896;20.868;2022-10-16T17:36:46;1.15;;;0.30;;
28960;SDS011;16068;42.896;20.868;2022-10-16T17:39:32;0.10;;;0.10;;
28960;SDS011;16068;42.896;20.868;2022-10-16T17:42:18;0.10;;;0.10;;
28960;SDS011;16068;42.896;20.868;2022-10-16T17:45:05;0.10;;;0.10;;
28960;SDS011;16068;42.896;20.868;2022-10-16T17:47:51;0.15;;;0.15;;
28960;SDS011;16068;42.896;20.868;2022-10-16T17:50:41;0.13;;;0.13;;
28960;SDS011;16068;42.896;20.868;2022-10-16T17:53:27;0.10;;;0.10;;
28960;SDS011;16068;42.896;20.868;2022-10-16T17:56:13;0.10;;;0.10;;
28960;SDS011;16068;42.896;20.868;2022-10-16T17:59:00;0.20;;;0.20;;
28960;SDS011;16068;42.896;20.868;2022-10-16T18:01:46;0.20;;;0.20;;
28960;SDS011;16068;42.896;20.868;2022-10-16T18:04:32;0.20;;;0.20;;
28960;SDS011;16068;42.896;20.868;2022-10-16T18:07:18;0.10;;;0.10;;
28960;SDS011;16068;42.896;20.868;2022-10-16T18:10:04;0.13;;;0.13;;
28960;SDS011;16068;42.896;20.868;2022-10-16T18:12:56;0.10;;;0.10;;
28960;SDS011;16068;42.896;20.868;2022-10-16T18:15:42;0.10;;;0.10;;
28960;SDS011;16068;42.896;20.868;2022-10-16T18:18:28;0.10;;;0.10;;
28960;SDS011;16068;42.896;20.868;2022-10-16T18:21:15;0.30;;;0.30;;
28960;SDS011;16068;42.896;20.868;2022-10-16T18:24:02;0.20;;;0.20;;
28960;SDS011;16068;42.896;20.868;2022-10-16T18:26:49;0.20;;;0.20;;
28960;SDS011;16068;42.896;20.868;2022-10-16T18:29:37;0.45;;;0.22;;
28960;SDS011;16068;42.896;20.868;2022-10-16T18:32:23;0.20;;;0.20;;
28960;SDS011;16068;42.896;20.868;2022-10-16T18:35:09;0.10;;;0.10;;
28960;SDS011;16068;42.896;20.868;2022-10-16T18:37:55;0.20;;;0.20;;
28960;SDS011;16068;42.896;20.868;2022-10-16T18:40:45;0.10;;;0.10;;